Sidrolandia, Brazil
Current Conditions -  °F | °C
As of 3:00 AM on Saturday 01 Nov 2014 (Local Time) from SBCG Reporting Station
Scattered Clouds Scattered Clouds  
Wind Chill: 72°   Ceiling: Unl
Heat Index: 72°   Visibility: 6mi
Dew Point: 68°   Wind: 10mph
Humidity: 88%   Direction: 10°N
Pressure: 29.88"   Gusts: NA
Location:  20.93°S, 54.96°W
Report Text: SBCG 010600Z 01009KT 9999 FEW040 SCT080 22/20 Q1012
Loading
Personal Weather Stations






























Interactive Weather Map
Tropical Storm Tracking
New forecast layout! Learn more

10-Day Weather Forecast

Advertisements
Track Severe Weather on mobile